createdAt,value
2019-01-19T21:18:54.915Z,23.60
2019-01-19T21:21:25.245Z,23.60
2019-01-19T21:23:56.628Z,23.70
2019-01-19T21:26:26.856Z,23.70
2019-01-19T21:28:57.087Z,23.70
2019-01-19T21:31:27.323Z,23.70
2019-01-19T21:33:57.571Z,23.70
2019-01-19T21:36:27.811Z,23.70
2019-01-19T21:38:58.045Z,23.70
2019-01-19T21:41:28.269Z,23.70
2019-01-19T21:43:58.497Z,23.70
2019-01-19T21:46:28.735Z,23.70
2019-01-19T21:48:59.423Z,23.70
2019-01-19T21:51:29.800Z,23.70
2019-01-19T21:54:00.055Z,23.60
2019-01-19T21:56:30.266Z,23.60
2019-01-19T21:59:01.763Z,23.50
2019-01-19T22:01:32.048Z,23.50
2019-01-19T22:04:02.264Z,23.50
2019-01-19T22:06:32.486Z,23.50
2019-01-19T22:09:03.171Z,23.40
2019-01-19T22:11:33.973Z,23.40
2019-01-19T22:14:04.375Z,23.40
2019-01-19T22:16:34.598Z,23.30
2019-01-19T22:19:05.005Z,23.30
2019-01-19T22:21:36.196Z,23.30
2019-01-19T22:24:06.483Z,23.30
2019-01-19T22:26:37.372Z,23.20
2019-01-19T22:29:08.718Z,23.20
2019-01-19T22:31:39.179Z,23.20
2019-01-19T22:34:09.409Z,23.20
2019-01-19T22:36:39.627Z,23.20
2019-01-19T22:39:09.847Z,23.10
2019-01-19T22:41:40.059Z,23.10
2019-01-19T22:44:10.280Z,23.10
2019-01-19T22:46:40.508Z,23.10
2019-01-19T22:49:10.805Z,23.10
2019-01-19T22:51:41.227Z,23.00
2019-01-19T22:54:11.521Z,23.00
2019-01-19T22:56:41.739Z,23.00
2019-01-19T22:59:11.952Z,23.00
2019-01-19T23:01:42.973Z,22.90
2019-01-19T23:04:14.160Z,22.90
